sensor_id;sensor_type;location;lat;lon;timestamp;P1;durP1;ratioP1;P2;durP2;ratioP2
16600;SDS011;34891;48.164;11.572;2022-12-29T00:01:36;1.63;;;0.50;;
16600;SDS011;34891;48.164;11.572;2022-12-29T00:06:50;1.50;;;0.95;;
16600;SDS011;34891;48.164;11.572;2022-12-29T00:11:52;2.33;;;0.50;;
16600;SDS011;34891;48.164;11.572;2022-12-29T00:16:55;2.38;;;1.27;;
16600;SDS011;34891;48.164;11.572;2022-12-29T00:21:59;1.88;;;1.35;;
16600;SDS011;34891;48.164;11.572;2022-12-29T00:27:19;2.08;;;0.75;;
16600;SDS011;34891;48.164;11.572;2022-12-29T00:32:39;2.22;;;0.90;;
16600;SDS011;34891;48.164;11.572;2022-12-29T00:38:03;1.25;;;0.73;;
16600;SDS011;34891;48.164;11.572;2022-12-29T00:43:24;0.55;;;0.50;;
16600;SDS011;34891;48.164;11.572;2022-12-29T00:48:45;2.10;;;0.88;;
16600;SDS011;34891;48.164;11.572;2022-12-29T00:54:07;0.77;;;0.70;;
16600;SDS011;34891;48.164;11.572;2022-12-29T00:59:10;1.90;;;0.82;;
16600;SDS011;34891;48.164;11.572;2022-12-29T01:04:12;0.80;;;0.50;;
16600;SDS011;34891;48.164;11.572;2022-12-29T01:09:16;1.15;;;0.70;;
16600;SDS011;34891;48.164;11.572;2022-12-29T01:14:37;1.85;;;0.98;;
16600;SDS011;34891;48.164;11.572;2022-12-29T01:19:49;0.55;;;0.35;;
16600;SDS011;34891;48.164;11.572;2022-12-29T01:24:53;2.22;;;0.98;;
16600;SDS011;34891;48.164;11.572;2022-12-29T01:29:56;0.98;;;0.50;;
16600;SDS011;34891;48.164;11.572;2022-12-29T01:34:59;1.35;;;0.80;;
16600;SDS011;34891;48.164;11.572;2022-12-29T01:40:03;1.75;;;0.82;;
16600;SDS011;34891;48.164;11.572;2022-12-29T01:45:08;0.98;;;0.63;;
16600;SDS011;34891;48.164;11.572;2022-12-29T01:55:15;3.05;;;0.90;;
16600;SDS011;34891;48.164;11.572;2022-12-29T02:00:18;2.35;;;0.40;;
16600;SDS011;34891;48.164;11.572;2022-12-29T02:05:23;0.68;;;0.63;;
16600;SDS011;34891;48.164;11.572;2022-12-29T02:10:30;1.40;;;0.90;;
16600;SDS011;34891;48.164;11.572;2022-12-29T02:15:35;0.90;;;0.50;;
16600;SDS011;34891;48.164;11.572;2022-12-29T02:20:54;0.65;;;0.65;;
16600;SDS011;34891;48.164;11.572;2022-12-29T02:31:28;1.35;;;0.88;;
16600;SDS011;34891;48.164;11.572;2022-12-29T02:36:37;0.50;;;0.45;;
16600;SDS011;34891;48.164;11.572;2022-12-29T02:41:44;1.27;;;0.80;;
16600;SDS011;34891;48.164;11.572;2022-12-29T02:46:53;3.40;;;0.75;;
16600;SDS011;34891;48.164;11.572;2022-12-29T02:51:58;0.88;;;0.47;;
16600;SDS011;34891;48.164;11.572;2022-12-29T02:57:08;1.13;;;0.73;;
16600;SDS011;34891;48.164;11.572;2022-12-29T03:02:17;1.75;;;0.45;;
16600;SDS011;34891;48.164;11.572;2022-12-29T03:07:27;0.67;;;0.43;;
16600;SDS011;34891;48.164;11.572;2022-12-29T03:12:34;1.77;;;1.00;;
16600;SDS011;34891;48.164;11.572;2022-12-29T03:18:04;0.80;;;0.63;;
16600;SDS011;34891;48.164;11.572;2022-12-29T03:23:08;1.60;;;0.68;;
16600;SDS011;34891;48.164;11.572;2022-12-29T03:28:11;1.23;;;0.35;;
16600;SDS011;34891;48.164;11.572;2022-12-29T03:33:16;1.33;;;0.37;;
16600;SDS011;34891;48.164;11.572;2022-12-29T03:38:21;1.70;;;0.70;;
16600;SDS011;34891;48.164;11.572;2022-12-29T03:43:25;1.85;;;0.75;;
16600;SDS011;34891;48.164;11.572;2022-12-29T03:48:29;1.15;;;0.80;;
16600;SDS011;34891;48.164;11.572;2022-12-29T03:53:34;0.70;;;0.43;;
16600;SDS011;34891;48.164;11.572;2022-12-29T03:58:37;0.80;;;0.68;;
16600;SDS011;34891;48.164;11.572;2022-12-29T04:03:41;0.55;;;0.43;;
16600;SDS011;34891;48.164;11.572;2022-12-29T04:08:44;1.83;;;0.60;;
16600;SDS011;34891;48.164;11.572;2022-12-29T04:13:47;0.63;;;0.60;;
16600;SDS011;34891;48.164;11.572;2022-12-29T04:18:50;1.42;;;0.60;;
16600;SDS011;34891;48.164;11.572;2022-12-29T04:23:53;0.38;;;0.28;;
16600;SDS011;34891;48.164;11.572;2022-12-29T04:28:56;1.35;;;0.70;;
16600;SDS011;34891;48.164;11.572;2022-12-29T04:34:00;1.58;;;0.70;;
16600;SDS011;34891;48.164;11.572;2022-12-29T04:39:03;0.80;;;0.45;;
16600;SDS011;34891;48.164;11.572;2022-12-29T04:44:06;1.00;;;0.30;;
16600;SDS011;34891;48.164;11.572;2022-12-29T04:49:10;0.57;;;0.45;;
16600;SDS011;34891;48.164;11.572;2022-12-29T04:54:14;1.00;;;0.75;;
16600;SDS011;34891;48.164;11.572;2022-12-29T04:59:16;0.52;;;0.38;;
16600;SDS011;34891;48.164;11.572;2022-12-29T05:04:20;0.50;;;0.30;;
16600;SDS011;34891;48.164;11.572;2022-12-29T05:09:23;0.50;;;0.50;;
16600;SDS011;34891;48.164;11.572;2022-12-29T05:14:26;0.77;;;0.45;;
16600;SDS011;34891;48.164;11.572;2022-12-29T05:19:30;0.45;;;0.40;;
16600;SDS011;34891;48.164;11.572;2022-12-29T05:24:32;0.40;;;0.40;;
16600;SDS011;34891;48.164;11.572;2022-12-29T05:29:35;0.90;;;0.60;;
16600;SDS011;34891;48.164;11.572;2022-12-29T05:34:39;1.70;;;0.50;;
16600;SDS011;34891;48.164;11.572;2022-12-29T05:39:41;0.95;;;0.60;;
16600;SDS011;34891;48.164;11.572;2022-12-29T05:44:44;2.00;;;0.82;;
16600;SDS011;34891;48.164;11.572;2022-12-29T05:49:48;0.57;;;0.43;;
16600;SDS011;34891;48.164;11.572;2022-12-29T05:54:51;0.55;;;0.50;;
16600;SDS011;34891;48.164;11.572;2022-12-29T05:59:54;1.35;;;0.68;;
16600;SDS011;34891;48.164;11.572;2022-12-29T06:04:58;0.75;;;0.55;;
16600;SDS011;34891;48.164;11.572;2022-12-29T06:10:00;0.90;;;0.30;;
16600;SDS011;34891;48.164;11.572;2022-12-29T06:15:03;0.60;;;0.60;;
16600;SDS011;34891;48.164;11.572;2022-12-29T06:20:09;1.85;;;1.00;;
16600;SDS011;34891;48.164;11.572;2022-12-29T06:25:11;0.95;;;0.57;;
16600;SDS011;34891;48.164;11.572;2022-12-29T06:30:14;0.80;;;0.60;;
16600;SDS011;34891;48.164;11.572;2022-12-29T06:35:19;1.50;;;1.20;;
16600;SDS011;34891;48.164;11.572;2022-12-29T06:40:22;0.73;;;0.65;;
16600;SDS011;34891;48.164;11.572;2022-12-29T06:45:25;1.70;;;0.80;;
16600;SDS011;34891;48.164;11.572;2022-12-29T06:50:29;1.27;;;0.70;;
16600;SDS011;34891;48.164;11.572;2022-12-29T06:55:32;0.60;;;0.50;;
16600;SDS011;34891;48.164;11.572;2022-12-29T07:00:34;1.33;;;0.57;;
16600;SDS011;34891;48.164;11.572;2022-12-29T07:05:38;4.28;;;0.73;;
16600;SDS011;34891;48.164;11.572;2022-12-29T07:10:41;1.75;;;0.77;;
16600;SDS011;34891;48.164;11.572;2022-12-29T07:15:44;1.80;;;0.70;;
16600;SDS011;34891;48.164;11.572;2022-12-29T07:20:48;5.05;;;0.85;;
16600;SDS011;34891;48.164;11.572;2022-12-29T07:25:58;0.28;;;0.28;;
16600;SDS011;34891;48.164;11.572;2022-12-29T07:31:00;0.55;;;0.43;;
16600;SDS011;34891;48.164;11.572;2022-12-29T07:36:06;1.98;;;0.80;;
16600;SDS011;34891;48.164;11.572;2022-12-29T07:41:09;1.13;;;0.40;;
16600;SDS011;34891;48.164;11.572;2022-12-29T07:46:11;2.40;;;0.80;;
16600;SDS011;34891;48.164;11.572;2022-12-29T07:51:35;0.93;;;0.73;;
16600;SDS011;34891;48.164;11.572;2022-12-29T07:56:38;0.40;;;0.40;;
16600;SDS011;34891;48.164;11.572;2022-12-29T08:01:40;2.72;;;0.90;;
16600;SDS011;34891;48.164;11.572;2022-12-29T08:06:44;1.27;;;1.10;;
16600;SDS011;34891;48.164;11.572;2022-12-29T08:11:48;1.80;;;0.90;;
16600;SDS011;34891;48.164;11.572;2022-12-29T08:16:51;1.02;;;0.90;;
16600;SDS011;34891;48.164;11.572;2022-12-29T08:21:54;2.85;;;1.20;;
16600;SDS011;34891;48.164;11.572;2022-12-29T08:26:57;2.38;;;0.88;;
16600;SDS011;34891;48.164;11.572;2022-12-29T08:32:09;4.35;;;1.30;;
16600;SDS011;34891;48.164;11.572;2022-12-29T08:37:13;1.33;;;0.88;;
16600;SDS011;34891;48.164;11.572;2022-12-29T08:42:15;2.97;;;1.13;;
16600;SDS011;34891;48.164;11.572;2022-12-29T08:47:18;0.88;;;0.80;;
16600;SDS011;34891;48.164;11.572;2022-12-29T08:52:22;2.13;;;1.13;;
16600;SDS011;34891;48.164;11.572;2022-12-29T08:57:25;1.90;;;1.15;;
16600;SDS011;34891;48.164;11.572;2022-12-29T09:02:27;0.50;;;0.50;;
16600;SDS011;34891;48.164;11.572;2022-12-29T09:07:31;2.10;;;1.35;;
16600;SDS011;34891;48.164;11.572;2022-12-29T09:17:37;1.00;;;0.90;;
16600;SDS011;34891;48.164;11.572;2022-12-29T09:22:48;3.20;;;1.05;;
16600;SDS011;34891;48.164;11.572;2022-12-29T09:27:51;1.02;;;0.70;;
16600;SDS011;34891;48.164;11.572;2022-12-29T09:32:54;1.02;;;0.80;;
16600;SDS011;34891;48.164;11.572;2022-12-29T09:37:58;1.40;;;1.30;;
16600;SDS011;34891;48.164;11.572;2022-12-29T09:48:03;1.85;;;1.15;;
16600;SDS011;34891;48.164;11.572;2022-12-29T09:53:13;1.08;;;0.90;;
16600;SDS011;34891;48.164;11.572;2022-12-29T09:58:18;1.58;;;1.00;;
16600;SDS011;34891;48.164;11.572;2022-12-29T10:03:24;0.47;;;0.40;;
16600;SDS011;34891;48.164;11.572;2022-12-29T10:08:32;1.00;;;0.90;;
16600;SDS011;34891;48.164;11.572;2022-12-29T10:13:43;1.02;;;0.88;;
16600;SDS011;34891;48.164;11.572;2022-12-29T10:18:53;1.13;;;1.02;;
16600;SDS011;34891;48.164;11.572;2022-12-29T10:23:59;1.00;;;0.73;;
16600;SDS011;34891;48.164;11.572;2022-12-29T10:29:05;0.65;;;0.63;;
16600;SDS011;34891;48.164;11.572;2022-12-29T10:34:15;1.90;;;1.00;;
16600;SDS011;34891;48.164;11.572;2022-12-29T10:39:22;2.33;;;0.93;;
16600;SDS011;34891;48.164;11.572;2022-12-29T10:44:27;1.08;;;0.95;;
16600;SDS011;34891;48.164;11.572;2022-12-29T10:49:34;1.65;;;1.05;;
16600;SDS011;34891;48.164;11.572;2022-12-29T10:54:42;1.50;;;1.13;;
16600;SDS011;34891;48.164;11.572;2022-12-29T10:59:46;2.33;;;1.20;;
16600;SDS011;34891;48.164;11.572;2022-12-29T11:04:50;1.73;;;1.27;;
16600;SDS011;34891;48.164;11.572;2022-12-29T11:09:57;1.08;;;1.02;;
16600;SDS011;34891;48.164;11.572;2022-12-29T11:15:23;1.63;;;1.27;;
16600;SDS011;34891;48.164;11.572;2022-12-29T11:20:28;2.57;;;1.43;;
16600;SDS011;34891;48.164;11.572;2022-12-29T11:25:32;3.63;;;1.70;;
16600;SDS011;34891;48.164;11.572;2022-12-29T11:30:35;2.83;;;1.83;;
16600;SDS011;34891;48.164;11.572;2022-12-29T11:35:39;2.25;;;1.10;;
16600;SDS011;34891;48.164;11.572;2022-12-29T11:40:44;1.52;;;1.33;;
16600;SDS011;34891;48.164;11.572;2022-12-29T11:45:46;2.40;;;1.38;;
16600;SDS011;34891;48.164;11.572;2022-12-29T11:50:50;3.53;;;0.85;;
16600;SDS011;34891;48.164;11.572;2022-12-29T11:55:56;1.45;;;1.30;;
16600;SDS011;34891;48.164;11.572;2022-12-29T12:01:00;3.58;;;1.30;;
16600;SDS011;34891;48.164;11.572;2022-12-29T12:06:04;2.47;;;1.45;;
16600;SDS011;34891;48.164;11.572;2022-12-29T12:11:10;2.67;;;1.50;;
16600;SDS011;34891;48.164;11.572;2022-12-29T12:16:14;2.53;;;1.60;;
16600;SDS011;34891;48.164;11.572;2022-12-29T12:21:21;1.00;;;0.80;;
16600;SDS011;34891;48.164;11.572;2022-12-29T12:26:30;1.23;;;0.70;;
16600;SDS011;34891;48.164;11.572;2022-12-29T12:31:39;2.53;;;1.67;;
16600;SDS011;34891;48.164;11.572;2022-12-29T12:36:48;1.60;;;1.50;;
16600;SDS011;34891;48.164;11.572;2022-12-29T12:41:57;9.82;;;2.33;;
16600;SDS011;34891;48.164;11.572;2022-12-29T12:47:18;6.22;;;1.25;;
16600;SDS011;34891;48.164;11.572;2022-12-29T12:52:27;3.58;;;1.23;;
16600;SDS011;34891;48.164;11.572;2022-12-29T12:57:36;0.50;;;0.50;;
16600;SDS011;34891;48.164;11.572;2022-12-29T13:02:49;0.75;;;0.65;;
16600;SDS011;34891;48.164;11.572;2022-12-29T13:13:32;1.13;;;0.70;;
16600;SDS011;34891;48.164;11.572;2022-12-29T13:23:43;0.60;;;0.60;;
16600;SDS011;34891;48.164;11.572;2022-12-29T13:28:52;4.68;;;0.85;;
16600;SDS011;34891;48.164;11.572;2022-12-29T13:33:56;0.73;;;0.50;;
16600;SDS011;34891;48.164;11.572;2022-12-29T13:39:02;1.95;;;0.95;;
16600;SDS011;34891;48.164;11.572;2022-12-29T13:44:09;0.95;;;0.50;;
16600;SDS011;34891;48.164;11.572;2022-12-29T13:49:14;2.22;;;0.60;;
16600;SDS011;34891;48.164;11.572;2022-12-29T13:54:21;1.02;;;0.73;;
16600;SDS011;34891;48.164;11.572;2022-12-29T13:59:31;1.33;;;0.80;;
16600;SDS011;34891;48.164;11.572;2022-12-29T14:04:54;1.58;;;0.85;;
16600;SDS011;34891;48.164;11.572;2022-12-29T14:09:57;0.77;;;0.43;;
16600;SDS011;34891;48.164;11.572;2022-12-29T14:15:05;2.42;;;1.10;;
16600;SDS011;34891;48.164;11.572;2022-12-29T14:20:17;2.08;;;0.93;;
16600;SDS011;34891;48.164;11.572;2022-12-29T14:30:47;2.00;;;1.05;;
16600;SDS011;34891;48.164;11.572;2022-12-29T14:35:50;2.28;;;0.85;;
16600;SDS011;34891;48.164;11.572;2022-12-29T14:46:23;2.10;;;0.80;;
16600;SDS011;34891;48.164;11.572;2022-12-29T14:56:28;1.55;;;0.80;;
16600;SDS011;34891;48.164;11.572;2022-12-29T15:01:37;3.17;;;1.17;;
16600;SDS011;34891;48.164;11.572;2022-12-29T15:06:40;2.53;;;1.25;;
16600;SDS011;34891;48.164;11.572;2022-12-29T15:11:47;4.18;;;1.80;;
16600;SDS011;34891;48.164;11.572;2022-12-29T15:16:52;1.38;;;0.90;;
16600;SDS011;34891;48.164;11.572;2022-12-29T15:21:54;4.53;;;1.85;;
16600;SDS011;34891;48.164;11.572;2022-12-29T15:26:57;2.17;;;1.20;;
16600;SDS011;34891;48.164;11.572;2022-12-29T15:32:20;3.08;;;1.05;;
16600;SDS011;34891;48.164;11.572;2022-12-29T15:37:23;6.88;;;2.13;;
16600;SDS011;34891;48.164;11.572;2022-12-29T15:42:48;5.80;;;1.92;;
16600;SDS011;34891;48.164;11.572;2022-12-29T15:47:53;3.25;;;1.58;;
16600;SDS011;34891;48.164;11.572;2022-12-29T15:52:57;2.72;;;1.65;;
16600;SDS011;34891;48.164;11.572;2022-12-29T15:58:01;4.03;;;1.80;;
16600;SDS011;34891;48.164;11.572;2022-12-29T16:03:05;4.00;;;1.23;;
16600;SDS011;34891;48.164;11.572;2022-12-29T16:08:20;3.92;;;2.17;;
16600;SDS011;34891;48.164;11.572;2022-12-29T16:13:24;4.30;;;2.45;;
16600;SDS011;34891;48.164;11.572;2022-12-29T16:23:31;5.50;;;1.80;;
16600;SDS011;34891;48.164;11.572;2022-12-29T16:28:36;2.33;;;1.40;;
16600;SDS011;34891;48.164;11.572;2022-12-29T16:33:45;6.28;;;2.08;;
16600;SDS011;34891;48.164;11.572;2022-12-29T16:38:50;5.55;;;1.80;;
16600;SDS011;34891;48.164;11.572;2022-12-29T16:49:13;1.55;;;0.90;;
16600;SDS011;34891;48.164;11.572;2022-12-29T16:54:29;3.67;;;1.67;;
16600;SDS011;34891;48.164;11.572;2022-12-29T16:59:33;2.83;;;1.67;;
16600;SDS011;34891;48.164;11.572;2022-12-29T17:04:36;2.85;;;1.25;;
16600;SDS011;34891;48.164;11.572;2022-12-29T17:09:40;4.22;;;1.77;;
16600;SDS011;34891;48.164;11.572;2022-12-29T17:14:43;4.45;;;1.40;;
16600;SDS011;34891;48.164;11.572;2022-12-29T17:19:47;5.68;;;1.65;;
16600;SDS011;34891;48.164;11.572;2022-12-29T17:29:56;2.50;;;1.50;;
16600;SDS011;34891;48.164;11.572;2022-12-29T17:34:59;4.78;;;1.75;;
16600;SDS011;34891;48.164;11.572;2022-12-29T17:40:04;3.20;;;1.35;;
16600;SDS011;34891;48.164;11.572;2022-12-29T17:45:11;3.13;;;1.70;;
16600;SDS011;34891;48.164;11.572;2022-12-29T17:50:15;2.83;;;1.35;;
16600;SDS011;34891;48.164;11.572;2022-12-29T17:55:18;3.22;;;1.77;;
16600;SDS011;34891;48.164;11.572;2022-12-29T18:00:23;5.85;;;2.35;;
16600;SDS011;34891;48.164;11.572;2022-12-29T18:05:30;9.13;;;1.48;;
16600;SDS011;34891;48.164;11.572;2022-12-29T18:10:33;5.20;;;1.65;;
16600;SDS011;34891;48.164;11.572;2022-12-29T18:15:37;4.25;;;1.55;;
16600;SDS011;34891;48.164;11.572;2022-12-29T18:25:46;3.35;;;1.08;;
16600;SDS011;34891;48.164;11.572;2022-12-29T18:30:51;4.03;;;2.75;;
16600;SDS011;34891;48.164;11.572;2022-12-29T18:35:54;4.50;;;1.98;;
16600;SDS011;34891;48.164;11.572;2022-12-29T18:40:58;4.57;;;2.00;;
16600;SDS011;34891;48.164;11.572;2022-12-29T18:46:02;4.63;;;1.98;;
16600;SDS011;34891;48.164;11.572;2022-12-29T18:56:10;5.25;;;1.83;;
16600;SDS011;34891;48.164;11.572;2022-12-29T19:01:17;4.93;;;2.22;;
16600;SDS011;34891;48.164;11.572;2022-12-29T19:06:21;2.42;;;1.50;;
16600;SDS011;34891;48.164;11.572;2022-12-29T19:11:24;3.97;;;1.95;;
16600;SDS011;34891;48.164;11.572;2022-12-29T19:16:28;4.65;;;1.58;;
16600;SDS011;34891;48.164;11.572;2022-12-29T19:26:34;3.92;;;1.40;;
16600;SDS011;34891;48.164;11.572;2022-12-29T19:31:38;3.17;;;1.33;;
16600;SDS011;34891;48.164;11.572;2022-12-29T19:41:44;1.30;;;0.82;;
16600;SDS011;34891;48.164;11.572;2022-12-29T19:46:48;3.25;;;1.95;;
16600;SDS011;34891;48.164;11.572;2022-12-29T19:51:50;4.43;;;2.13;;
16600;SDS011;34891;48.164;11.572;2022-12-29T19:56:53;6.30;;;2.30;;
16600;SDS011;34891;48.164;11.572;2022-12-29T20:01:57;3.30;;;1.42;;
16600;SDS011;34891;48.164;11.572;2022-12-29T20:07:00;4.50;;;1.77;;
16600;SDS011;34891;48.164;11.572;2022-12-29T20:12:03;4.10;;;2.30;;
16600;SDS011;34891;48.164;11.572;2022-12-29T20:17:08;2.78;;;1.20;;
16600;SDS011;34891;48.164;11.572;2022-12-29T20:22:12;1.48;;;0.70;;
16600;SDS011;34891;48.164;11.572;2022-12-29T20:27:15;4.47;;;1.60;;
16600;SDS011;34891;48.164;11.572;2022-12-29T20:32:19;3.45;;;1.70;;
16600;SDS011;34891;48.164;11.572;2022-12-29T20:37:22;1.67;;;1.00;;
16600;SDS011;34891;48.164;11.572;2022-12-29T20:42:25;3.30;;;1.40;;
16600;SDS011;34891;48.164;11.572;2022-12-29T20:47:29;5.63;;;1.67;;
16600;SDS011;34891;48.164;11.572;2022-12-29T20:52:32;3.88;;;1.35;;
16600;SDS011;34891;48.164;11.572;2022-12-29T20:57:34;4.50;;;1.10;;
16600;SDS011;34891;48.164;11.572;2022-12-29T21:02:58;2.08;;;1.13;;
16600;SDS011;34891;48.164;11.572;2022-12-29T21:08:01;3.20;;;1.15;;
16600;SDS011;34891;48.164;11.572;2022-12-29T21:13:05;4.80;;;2.13;;
16600;SDS011;34891;48.164;11.572;2022-12-29T21:18:09;5.53;;;1.55;;
16600;SDS011;34891;48.164;11.572;2022-12-29T21:23:15;2.25;;;1.23;;
16600;SDS011;34891;48.164;11.572;2022-12-29T21:28:22;4.25;;;1.50;;
16600;SDS011;34891;48.164;11.572;2022-12-29T21:33:26;5.43;;;1.50;;
16600;SDS011;34891;48.164;11.572;2022-12-29T21:43:33;0.82;;;0.80;;
16600;SDS011;34891;48.164;11.572;2022-12-29T21:48:37;6.20;;;1.88;;
16600;SDS011;34891;48.164;11.572;2022-12-29T21:53:40;3.17;;;1.98;;
16600;SDS011;34891;48.164;11.572;2022-12-29T21:58:44;4.00;;;1.20;;
16600;SDS011;34891;48.164;11.572;2022-12-29T22:04:06;3.45;;;1.65;;
16600;SDS011;34891;48.164;11.572;2022-12-29T22:09:26;4.35;;;1.90;;
16600;SDS011;34891;48.164;11.572;2022-12-29T22:14:47;3.97;;;1.80;;
16600;SDS011;34891;48.164;11.572;2022-12-29T22:19:51;5.40;;;2.58;;
16600;SDS011;34891;48.164;11.572;2022-12-29T22:24:54;3.63;;;1.83;;
16600;SDS011;34891;48.164;11.572;2022-12-29T22:29:57;7.25;;;2.22;;
16600;SDS011;34891;48.164;11.572;2022-12-29T22:35:01;4.63;;;1.90;;
16600;SDS011;34891;48.164;11.572;2022-12-29T22:40:09;6.10;;;2.10;;
16600;SDS011;34891;48.164;11.572;2022-12-29T22:45:12;5.60;;;2.30;;
16600;SDS011;34891;48.164;11.572;2022-12-29T22:50:16;6.03;;;1.90;;
16600;SDS011;34891;48.164;11.572;2022-12-29T22:55:19;4.03;;;1.67;;
16600;SDS011;34891;48.164;11.572;2022-12-29T23:00:22;4.63;;;2.08;;
16600;SDS011;34891;48.164;11.572;2022-12-29T23:05:26;4.60;;;1.80;;
16600;SDS011;34891;48.164;11.572;2022-12-29T23:10:29;5.50;;;2.17;;
16600;SDS011;34891;48.164;11.572;2022-12-29T23:15:33;5.18;;;1.90;;
16600;SDS011;34891;48.164;11.572;2022-12-29T23:20:37;3.40;;;1.40;;
16600;SDS011;34891;48.164;11.572;2022-12-29T23:25:41;4.60;;;1.35;;
16600;SDS011;34891;48.164;11.572;2022-12-29T23:30:44;3.30;;;1.50;;
16600;SDS011;34891;48.164;11.572;2022-12-29T23:35:57;3.13;;;1.13;;
16600;SDS011;34891;48.164;11.572;2022-12-29T23:46:05;1.40;;;0.80;;
16600;SDS011;34891;48.164;11.572;2022-12-29T23:51:10;3.63;;;1.30;;
16600;SDS011;34891;48.164;11.572;2022-12-29T23:56:13;3.03;;;1.17;;
